createdAt,value
2023-03-26T00:02:23.501Z,52.17
2023-03-26T00:04:52.724Z,52.25
2023-03-26T00:07:21.564Z,52.24
2023-03-26T00:09:48.481Z,52.63
2023-03-26T00:12:18.747Z,52.45
2023-03-26T00:14:51.768Z,52.73
2023-03-26T00:17:18.876Z,52.56
2023-03-26T00:19:50.764Z,52.74
2023-03-26T00:22:20.114Z,52.65
2023-03-26T00:24:50.823Z,52.54
2023-03-26T00:27:19.648Z,52.88
2023-03-26T00:29:48.231Z,52.58
2023-03-26T00:32:17.053Z,52.58
2023-03-26T00:34:46.169Z,52.64
2023-03-26T00:37:15.001Z,52.60
2023-03-26T00:39:44.679Z,52.64
2023-03-26T00:42:14.939Z,52.86
2023-03-26T00:44:44.840Z,52.89
2023-03-26T00:47:11.471Z,52.97
2023-03-26T00:49:38.120Z,53.20
2023-03-26T00:52:08.819Z,53.28
2023-03-26T00:54:40.955Z,53.37
2023-03-26T00:57:18.174Z,53.11
2023-03-26T00:59:52.152Z,53.39
2023-03-26T01:02:20.831Z,53.27
2023-03-26T01:04:55.670Z,53.62
2023-03-26T01:07:28.984Z,53.94
2023-03-26T01:10:01.952Z,53.51
2023-03-26T01:12:34.977Z,53.80
2023-03-26T01:15:01.854Z,53.80
2023-03-26T01:17:34.183Z,53.92
2023-03-26T01:20:20.183Z,54.03
2023-03-26T01:22:52.333Z,53.88
2023-03-26T01:25:22.092Z,53.95
2023-03-26T01:27:57.415Z,53.87
2023-03-26T01:30:58.672Z,53.77
2023-03-26T01:33:30.400Z,54.17
2023-03-26T01:36:08.580Z,54.09
2023-03-26T01:39:04.289Z,53.89
2023-03-26T01:41:40.925Z,54.09
2023-03-26T01:44:12.954Z,54.50
2023-03-26T01:46:41.877Z,54.46
2023-03-26T01:49:13.468Z,54.51
2023-03-26T01:51:41.644Z,54.33
2023-03-26T01:54:11.432Z,54.26
2023-03-26T01:56:44.495Z,54.40
2023-03-26T01:59:33.180Z,53.95
2023-03-26T02:02:09.082Z,54.49
2023-03-26T02:04:59.342Z,54.24
2023-03-26T02:07:38.072Z,54.44
2023-03-26T02:10:23.253Z,54.45
2023-03-26T02:12:54.595Z,54.69
2023-03-26T02:15:24.400Z,54.60
2023-03-26T02:17:53.287Z,54.40
2023-03-26T02:20:20.293Z,54.44
2023-03-26T02:22:49.733Z,54.29
2023-03-26T02:25:18.521Z,54.26
2023-03-26T02:27:49.972Z,54.40
2023-03-26T02:30:26.514Z,54.31
2023-03-26T02:32:59.452Z,54.37
2023-03-26T02:35:26.674Z,54.21
2023-03-26T02:38:00.642Z,54.27
2023-03-26T02:40:29.934Z,54.37
2023-03-26T02:42:58.825Z,54.21
2023-03-26T02:45:27.886Z,54.26
2023-03-26T02:47:54.706Z,54.30
2023-03-26T02:50:26.284Z,54.29
2023-03-26T02:52:55.077Z,54.34
2023-03-26T02:55:24.886Z,54.23
2023-03-26T02:57:51.494Z,54.20
2023-03-26T03:00:18.231Z,54.29
2023-03-26T03:02:48.000Z,54.22
2023-03-26T03:05:17.769Z,54.16
2023-03-26T03:07:47.172Z,54.24
2023-03-26T03:10:15.520Z,54.13
2023-03-26T03:12:42.589Z,54.21
2023-03-26T03:15:12.748Z,54.16
2023-03-26T03:17:41.961Z,54.31
2023-03-26T03:20:12.587Z,54.18
2023-03-26T03:22:41.381Z,54.20
2023-03-26T03:25:14.437Z,54.35
2023-03-26T03:27:46.880Z,54.50
2023-03-26T03:30:13.964Z,54.65
2023-03-26T03:32:43.076Z,54.74
2023-03-26T03:35:09.780Z,54.78
2023-03-26T03:37:36.442Z,54.90
2023-03-26T03:40:05.914Z,54.90
2023-03-26T03:42:35.000Z,54.99
2023-03-26T03:45:02.260Z,55.01
2023-03-26T03:47:31.949Z,55.00
2023-03-26T03:50:03.776Z,55.05
2023-03-26T03:52:35.158Z,55.02
2023-03-26T03:55:02.084Z,55.01
2023-03-26T03:57:29.053Z,54.99
2023-03-26T03:59:59.050Z,55.05
2023-03-26T04:02:34.952Z,55.19
2023-03-26T04:05:06.032Z,54.96
2023-03-26T04:07:35.023Z,55.24
2023-03-26T04:10:03.207Z,55.12
2023-03-26T04:12:30.333Z,55.19
2023-03-26T04:14:59.621Z,55.05
2023-03-26T04:17:30.626Z,55.05
2023-03-26T04:19:57.432Z,55.18
2023-03-26T04:22:26.164Z,55.13
2023-03-26T04:24:54.974Z,55.00
2023-03-26T04:27:25.971Z,54.98
2023-03-26T04:29:52.586Z,54.92
2023-03-26T04:32:26.568Z,55.10
2023-03-26T04:34:55.658Z,55.09
2023-03-26T04:37:32.408Z,55.04
2023-03-26T04:40:06.382Z,54.91
2023-03-26T04:42:41.831Z,55.08
2023-03-26T04:45:09.281Z,55.02
2023-03-26T04:47:37.084Z,55.02
2023-03-26T04:50:07.659Z,54.84
2023-03-26T04:52:37.231Z,55.03
2023-03-26T04:55:06.969Z,54.90
2023-03-26T04:57:46.204Z,54.64
2023-03-26T05:00:18.672Z,54.87
2023-03-26T05:02:45.962Z,54.98
2023-03-26T05:05:14.785Z,55.06
2023-03-26T05:07:43.637Z,55.03
2023-03-26T05:10:14.998Z,54.89
2023-03-26T05:12:50.912Z,55.15
2023-03-26T05:15:21.041Z,55.15
2023-03-26T05:17:50.155Z,55.40
2023-03-26T05:20:30.310Z,55.09
2023-03-26T05:22:59.594Z,55.27
2023-03-26T05:25:32.425Z,55.48
2023-03-26T05:27:59.058Z,55.48
2023-03-26T05:30:30.923Z,55.53
2023-03-26T05:32:57.736Z,55.63
2023-03-26T05:35:26.625Z,55.44
2023-03-26T05:37:55.724Z,55.58
2023-03-26T05:40:22.428Z,55.74
2023-03-26T05:42:51.362Z,55.63
2023-03-26T05:45:22.289Z,55.76
2023-03-26T05:47:50.325Z,55.58
2023-03-26T05:50:19.212Z,55.65
2023-03-26T05:52:48.205Z,55.54
2023-03-26T05:55:18.553Z,55.41
2023-03-26T05:57:45.219Z,55.54
2023-03-26T06:00:12.399Z,55.51
2023-03-26T06:02:42.302Z,55.56
2023-03-26T06:05:12.509Z,55.45
2023-03-26T06:07:41.513Z,55.53
2023-03-26T06:10:10.915Z,55.29
2023-03-26T06:12:49.703Z,55.41
2023-03-26T06:15:21.107Z,55.20
2023-03-26T06:17:50.223Z,55.08
2023-03-26T06:20:19.606Z,55.20
2023-03-26T06:22:48.805Z,55.29
2023-03-26T06:25:18.256Z,55.14
2023-03-26T06:27:45.438Z,55.27
2023-03-26T06:30:12.358Z,55.13
2023-03-26T06:32:41.793Z,54.98
2023-03-26T06:35:11.573Z,54.87
2023-03-26T06:37:42.915Z,54.84
2023-03-26T06:40:15.871Z,54.90
2023-03-26T06:43:09.022Z,54.83
2023-03-26T06:45:29.524Z,54.80
2023-03-26T06:47:58.763Z,54.64
2023-03-26T06:50:27.874Z,54.84
2023-03-26T06:52:55.350Z,55.28
2023-03-26T06:55:27.138Z,55.03
2023-03-26T06:57:56.949Z,54.83
2023-03-26T07:00:26.593Z,54.75
2023-03-26T07:02:56.364Z,54.87
2023-03-26T07:05:25.531Z,54.82
2023-03-26T07:07:56.854Z,54.98
2023-03-26T07:10:23.665Z,54.59
2023-03-26T07:12:56.713Z,54.93
2023-03-26T07:15:25.833Z,54.74
2023-03-26T07:17:54.663Z,54.64
2023-03-26T07:20:23.846Z,54.92
2023-03-26T07:22:53.168Z,54.72
2023-03-26T07:25:22.696Z,54.61
2023-03-26T07:28:01.181Z,54.27
2023-03-26T07:30:49.999Z,54.50
2023-03-26T07:33:32.420Z,54.48
2023-03-26T07:36:05.103Z,54.52
2023-03-26T07:39:06.062Z,54.49
2023-03-26T07:41:38.797Z,54.54
2023-03-26T07:44:12.891Z,54.60
2023-03-26T07:46:41.465Z,54.53
2023-03-26T07:49:13.828Z,54.63
2023-03-26T07:51:43.188Z,54.51
2023-03-26T07:54:10.824Z,54.61
2023-03-26T07:56:58.062Z,54.85
2023-03-26T07:59:44.686Z,54.71
2023-03-26T08:02:20.734Z,54.86
2023-03-26T08:05:26.310Z,54.85
2023-03-26T08:08:11.872Z,54.53
2023-03-26T08:11:14.340Z,55.00
2023-03-26T08:13:59.509Z,54.83
2023-03-26T08:16:52.122Z,55.03
2023-03-26T08:19:31.829Z,54.84
2023-03-26T08:22:02.416Z,54.84
2023-03-26T08:24:37.049Z,54.76
2023-03-26T08:27:13.532Z,54.78
2023-03-26T08:29:54.352Z,54.59
2023-03-26T08:32:24.282Z,54.72
2023-03-26T08:34:53.390Z,54.59
2023-03-26T08:37:22.337Z,54.33
2023-03-26T08:39:49.026Z,54.46
2023-03-26T08:42:54.780Z,54.47
2023-03-26T08:45:51.466Z,54.70
2023-03-26T08:48:29.927Z,54.63
2023-03-26T08:51:21.420Z,54.78
2023-03-26T08:54:03.605Z,55.03
2023-03-26T08:56:37.118Z,54.91
2023-03-26T08:59:06.614Z,49.05
2023-03-26T09:01:55.242Z,43.46
2023-03-26T09:04:58.516Z,40.56
2023-03-26T09:07:38.678Z,41.53
2023-03-26T09:10:20.384Z,37.29
2023-03-26T09:13:18.185Z,35.43
2023-03-26T09:15:47.780Z,35.61
2023-03-26T09:18:36.388Z,35.08
2023-03-26T09:21:43.218Z,35.72
2023-03-26T09:24:16.633Z,34.86
2023-03-26T09:26:51.466Z,33.97
2023-03-26T09:29:21.051Z,33.80
2023-03-26T09:32:10.806Z,34.80
2023-03-26T09:34:40.518Z,33.57
2023-03-26T09:37:29.189Z,34.25
2023-03-26T09:40:18.809Z,32.29
2023-03-26T09:42:51.919Z,33.51
2023-03-26T09:45:43.730Z,32.63
2023-03-26T09:48:37.843Z,33.59
2023-03-26T09:51:07.850Z,32.58
2023-03-26T09:53:55.071Z,32.46
2023-03-26T09:56:39.728Z,33.12
2023-03-26T09:59:15.829Z,32.83
2023-03-26T10:01:51.555Z,32.84
2023-03-26T10:04:43.038Z,33.35
2023-03-26T10:07:12.723Z,32.13
2023-03-26T10:10:17.916Z,32.27
2023-03-26T10:12:48.575Z,32.22
2023-03-26T10:15:23.364Z,32.42
2023-03-26T10:18:26.588Z,32.82
2023-03-26T10:21:07.133Z,33.24
2023-03-26T10:24:07.548Z,32.68
2023-03-26T10:27:09.007Z,33.09
2023-03-26T10:29:52.336Z,31.84
2023-03-26T10:32:38.103Z,32.89
2023-03-26T10:35:27.114Z,33.00
2023-03-26T10:38:14.284Z,32.17
2023-03-26T10:41:05.972Z,31.42
2023-03-26T10:43:57.687Z,30.67
2023-03-26T10:46:47.016Z,32.13
2023-03-26T10:49:29.047Z,29.08
2023-03-26T10:52:02.024Z,31.06
2023-03-26T10:54:47.025Z,31.31
2023-03-26T10:57:41.561Z,29.83
2023-03-26T11:00:25.022Z,29.68
2023-03-26T11:03:02.845Z,30.66
2023-03-26T11:05:41.943Z,31.94
2023-03-26T11:08:13.426Z,30.15
2023-03-26T11:10:52.236Z,30.86
2023-03-26T11:14:04.278Z,29.20
2023-03-26T11:17:02.310Z,28.03
2023-03-26T11:19:28.850Z,28.57
2023-03-26T11:22:06.563Z,30.07
2023-03-26T11:24:58.106Z,29.38
2023-03-26T11:27:35.010Z,27.52
2023-03-26T11:30:10.680Z,28.66
2023-03-26T11:32:42.079Z,29.78
2023-03-26T11:35:39.800Z,30.27
2023-03-26T11:38:32.944Z,29.18
2023-03-26T11:41:02.818Z,28.83
2023-03-26T11:43:36.577Z,29.59
2023-03-26T11:46:04.791Z,29.23
2023-03-26T11:48:34.161Z,29.08
2023-03-26T11:51:22.730Z,29.96
2023-03-26T11:53:49.523Z,27.83
2023-03-26T11:56:39.450Z,28.35
2023-03-26T11:59:11.594Z,28.20
2023-03-26T12:01:51.001Z,29.17
2023-03-26T12:04:22.613Z,29.87
2023-03-26T12:06:53.292Z,29.64
2023-03-26T12:09:20.197Z,30.29
2023-03-26T12:11:56.294Z,28.91
2023-03-26T12:14:26.795Z,29.15
2023-03-26T12:17:04.989Z,29.56
2023-03-26T12:19:41.443Z,29.62
2023-03-26T12:22:35.397Z,30.63
2023-03-26T12:25:21.944Z,30.76
2023-03-26T12:27:58.893Z,29.61
2023-03-26T12:30:30.848Z,30.22
2023-03-26T12:33:01.056Z,30.13
2023-03-26T12:35:30.978Z,28.06
2023-03-26T12:38:16.616Z,28.03
2023-03-26T12:40:47.788Z,29.90
2023-03-26T12:44:49.665Z,30.26
2023-03-26T12:47:56.616Z,29.56
2023-03-26T12:49:12.489Z,28.92
2023-03-26T12:51:49.357Z,27.81
2023-03-26T12:54:29.069Z,27.34
2023-03-26T12:57:11.290Z,27.35
2023-03-26T12:59:48.908Z,28.17
2023-03-26T13:02:34.431Z,26.85
2023-03-26T13:05:29.418Z,25.78
2023-03-26T13:08:01.808Z,26.85
2023-03-26T13:10:33.987Z,27.49
2023-03-26T13:13:03.757Z,28.73
2023-03-26T13:15:48.901Z,28.30
2023-03-26T13:18:56.105Z,28.50
2023-03-26T13:21:33.217Z,25.92
2023-03-26T13:24:15.328Z,25.00
2023-03-26T13:27:00.257Z,26.05
2023-03-26T13:29:36.910Z,25.29
2023-03-26T13:32:07.234Z,24.03
2023-03-26T13:37:21.875Z,26.39
2023-03-26T13:39:54.631Z,26.81
2023-03-26T13:42:40.735Z,27.29
2023-03-26T13:45:22.756Z,27.68
2023-03-26T13:47:56.274Z,28.16
2023-03-26T13:50:29.156Z,27.20
2023-03-26T13:52:59.608Z,27.19
2023-03-26T13:55:34.537Z,27.88
2023-03-26T13:58:10.523Z,27.75
2023-03-26T14:00:49.078Z,28.10
2023-03-26T14:03:44.708Z,28.85
2023-03-26T14:06:34.804Z,28.20
2023-03-26T14:09:11.830Z,27.45
2023-03-26T14:11:57.859Z,27.91
2023-03-26T14:14:50.964Z,28.56
2023-03-26T14:17:39.639Z,28.69
2023-03-26T14:20:09.085Z,29.04
2023-03-26T14:22:51.007Z,29.38
2023-03-26T14:25:39.552Z,29.31
2023-03-26T14:28:11.124Z,28.52
2023-03-26T14:30:42.119Z,28.81
2023-03-26T14:33:28.034Z,28.45
2023-03-26T14:36:16.624Z,28.53
2023-03-26T14:39:11.722Z,29.07
2023-03-26T14:41:53.768Z,29.14
2023-03-26T14:44:47.792Z,29.62
2023-03-26T14:47:20.677Z,29.22
2023-03-26T14:50:06.554Z,29.33
2023-03-26T14:52:45.832Z,29.60
2023-03-26T14:55:30.744Z,29.91
2023-03-26T14:58:03.948Z,29.86
2023-03-26T15:00:42.731Z,29.94
2023-03-26T15:03:09.636Z,30.10
2023-03-26T15:05:55.233Z,29.62
2023-03-26T15:08:43.121Z,29.19
2023-03-26T15:11:20.556Z,29.53
2023-03-26T15:14:17.782Z,30.14
2023-03-26T15:17:22.337Z,30.13
2023-03-26T15:20:27.479Z,29.94
2023-03-26T15:23:17.715Z,29.78
2023-03-26T15:26:02.616Z,29.13
2023-03-26T15:28:57.302Z,29.52
2023-03-26T15:31:48.786Z,29.92
2023-03-26T15:34:40.300Z,30.38
2023-03-26T15:37:34.362Z,29.20
2023-03-26T15:40:12.836Z,29.53
2023-03-26T15:42:48.542Z,29.71
2023-03-26T15:45:32.294Z,29.63
2023-03-26T15:48:14.031Z,29.90
2023-03-26T15:51:05.469Z,29.80
2023-03-26T15:53:50.470Z,30.05
2023-03-26T15:56:49.114Z,30.15
2023-03-26T15:59:40.168Z,29.75
2023-03-26T16:02:07.643Z,29.83
2023-03-26T16:04:50.291Z,30.03
2023-03-26T16:07:31.772Z,30.67
2023-03-26T16:10:20.162Z,30.52
2023-03-26T16:13:06.591Z,30.64
2023-03-26T16:15:36.423Z,30.59
2023-03-26T16:18:06.041Z,30.21
2023-03-26T16:20:54.801Z,30.45
2023-03-26T16:23:47.289Z,30.20
2023-03-26T16:26:20.125Z,29.93
2023-03-26T16:28:53.509Z,30.03
2023-03-26T16:31:37.302Z,30.24
2023-03-26T16:34:07.836Z,30.06
2023-03-26T16:36:37.957Z,30.53
2023-03-26T16:39:05.008Z,30.13
2023-03-26T16:41:50.213Z,30.05
2023-03-26T16:44:40.300Z,30.04
2023-03-26T16:47:32.181Z,30.17
2023-03-26T16:50:21.341Z,30.18
2023-03-26T16:52:57.112Z,30.06
2023-03-26T16:55:36.396Z,30.00
2023-03-26T16:58:15.421Z,30.22
2023-03-26T17:00:52.516Z,30.09
2023-03-26T17:03:39.091Z,30.15
2023-03-26T17:06:45.703Z,30.13
2023-03-26T17:09:34.493Z,29.94
2023-03-26T17:12:26.321Z,30.30
2023-03-26T17:15:06.425Z,30.06
2023-03-26T17:17:59.436Z,30.32
2023-03-26T17:20:36.850Z,30.10
2023-03-26T17:23:29.857Z,29.81
2023-03-26T17:26:22.834Z,30.19
2023-03-26T17:29:08.144Z,30.14
2023-03-26T17:31:34.750Z,30.15
2023-03-26T17:34:39.391Z,30.43
2023-03-26T17:37:21.471Z,30.64
2023-03-26T17:40:27.090Z,30.72
2023-03-26T17:43:09.783Z,30.68
2023-03-26T17:45:39.483Z,30.54
2023-03-26T17:48:15.506Z,30.94
2023-03-26T17:50:46.355Z,30.94
2023-03-26T17:53:27.126Z,30.66
2023-03-26T17:55:56.583Z,30.70
2023-03-26T17:58:36.601Z,29.76
2023-03-26T18:01:05.467Z,29.06
2023-03-26T18:03:59.218Z,28.92
2023-03-26T18:06:51.651Z,28.63
2023-03-26T18:22:57.495Z,30.11
2023-03-26T18:28:05.282Z,29.96
2023-03-26T18:30:31.944Z,29.33
2023-03-26T18:33:14.828Z,29.43
2023-03-26T18:38:35.650Z,30.49
2023-03-26T18:41:08.084Z,30.12
2023-03-26T18:43:35.739Z,29.98
2023-03-26T18:46:13.076Z,28.62
2023-03-26T18:48:42.383Z,28.86
2023-03-26T18:59:41.011Z,28.81
2023-03-26T19:02:16.368Z,28.89
2023-03-26T19:07:27.863Z,29.51
2023-03-26T19:09:56.464Z,30.10
2023-03-26T19:12:27.929Z,30.10
2023-03-26T19:15:03.193Z,31.24
2023-03-26T19:17:34.369Z,31.55
2023-03-26T19:20:01.213Z,31.86
2023-03-26T19:25:31.689Z,32.27
2023-03-26T19:30:50.616Z,32.46
2023-03-26T19:36:08.361Z,32.54
2023-03-26T19:38:45.795Z,32.56
2023-03-26T19:41:26.654Z,31.44
2023-03-26T19:44:02.790Z,32.25
2023-03-26T19:46:33.144Z,31.81
2023-03-26T19:49:02.072Z,31.92
2023-03-26T19:51:38.748Z,31.01
2023-03-26T20:10:19.866Z,31.51
2023-03-26T20:12:46.682Z,30.58
2023-03-26T20:15:24.457Z,31.08
2023-03-26T20:17:57.795Z,30.71
2023-03-26T20:20:31.079Z,30.99
2023-03-26T20:22:57.925Z,31.33
2023-03-26T20:30:45.579Z,31.30
2023-03-26T20:33:23.543Z,31.19
2023-03-26T20:35:55.394Z,31.46
2023-03-26T20:38:39.222Z,31.41
2023-03-26T20:41:12.976Z,31.27
2023-03-26T20:43:42.516Z,31.49
2023-03-26T20:46:31.078Z,31.23
2023-03-26T20:49:01.266Z,31.39
2023-03-26T20:51:32.657Z,31.22
2023-03-26T20:56:42.287Z,31.29
2023-03-26T20:59:15.227Z,31.12
2023-03-26T21:01:48.243Z,31.38
2023-03-26T21:04:17.969Z,31.81
2023-03-26T21:06:48.215Z,31.92
2023-03-26T21:09:17.717Z,32.06
2023-03-26T21:11:47.092Z,32.15
2023-03-26T21:14:41.083Z,32.29
2023-03-26T21:17:16.705Z,32.25
2023-03-26T21:22:36.206Z,33.52
2023-03-26T21:25:32.165Z,34.55
2023-03-26T21:30:55.877Z,35.15
2023-03-26T21:33:27.404Z,35.37
2023-03-26T21:36:01.009Z,35.61
2023-03-26T21:38:32.908Z,36.09
2023-03-26T21:41:04.443Z,36.39
2023-03-26T21:43:33.845Z,36.96
2023-03-26T21:48:41.933Z,38.61
2023-03-26T21:51:12.954Z,38.28
2023-03-26T21:53:42.482Z,38.56
2023-03-26T21:59:42.781Z,38.46
2023-03-26T22:02:09.472Z,38.06
2023-03-26T22:05:03.483Z,38.41
2023-03-26T22:07:49.961Z,38.10
2023-03-26T22:10:21.634Z,38.37
2023-03-26T22:12:48.438Z,38.70
2023-03-26T22:15:18.188Z,38.85
2023-03-26T22:17:54.091Z,38.75
2023-03-26T22:20:27.574Z,38.76
2023-03-26T22:22:59.096Z,38.81
2023-03-26T22:25:28.248Z,38.66
2023-03-26T22:27:58.125Z,38.87
2023-03-26T22:30:25.730Z,38.91
2023-03-26T22:32:52.356Z,39.12
2023-03-26T22:35:21.740Z,39.14
2023-03-26T22:37:51.436Z,39.33
2023-03-26T22:40:18.166Z,39.30
2023-03-26T22:42:44.933Z,39.50
2023-03-26T22:45:11.909Z,39.52
2023-03-26T22:47:41.438Z,39.51
2023-03-26T22:50:11.333Z,39.70
2023-03-26T22:52:42.752Z,39.97
2023-03-26T22:55:11.105Z,39.49
2023-03-26T22:57:38.696Z,39.95
2023-03-26T23:00:17.209Z,39.73
2023-03-26T23:02:53.152Z,39.82
2023-03-26T23:05:23.662Z,40.13
2023-03-26T23:07:52.886Z,40.04
2023-03-26T23:10:24.205Z,40.20
2023-03-26T23:12:53.414Z,40.20
2023-03-26T23:15:22.708Z,40.34
2023-03-26T23:17:54.276Z,40.12
2023-03-26T23:20:23.956Z,40.59
2023-03-26T23:22:53.286Z,40.39
2023-03-26T23:25:22.341Z,40.54
2023-03-26T23:27:50.686Z,40.54
2023-03-26T23:30:17.478Z,40.93
2023-03-26T23:32:44.318Z,41.04
2023-03-26T23:35:11.321Z,40.87
2023-03-26T23:37:42.465Z,41.02
2023-03-26T23:40:10.493Z,41.02
2023-03-26T23:42:42.473Z,40.99
2023-03-26T23:45:09.451Z,40.90
2023-03-26T23:47:38.298Z,41.30
2023-03-26T23:50:07.849Z,41.45
2023-03-26T23:52:34.553Z,41.42
2023-03-26T23:55:01.251Z,41.32
2023-03-26T23:57:35.078Z,41.37
